createdAt,value
2023-03-31T00:00:18.904Z,15.13
2023-03-31T00:02:46.219Z,15.15
2023-03-31T00:05:18.201Z,19.60
2023-03-31T00:07:46.157Z,21.55
2023-03-31T00:10:18.308Z,13.15
2023-03-31T00:12:46.569Z,17.05
2023-03-31T00:15:13.759Z,25.30
2023-03-31T00:17:40.629Z,16.52
2023-03-31T00:20:12.499Z,22.80
2023-03-31T00:22:42.477Z,22.75
2023-03-31T00:25:13.504Z,21.48
2023-03-31T00:27:46.080Z,18.85
2023-03-31T00:30:14.352Z,27.08
2023-03-31T00:32:41.498Z,18.33
2023-03-31T00:35:09.020Z,19.65
2023-03-31T00:37:36.304Z,23.25
2023-03-31T00:40:10.341Z,27.95
2023-03-31T00:42:41.905Z,23.75
2023-03-31T00:45:14.592Z,17.38
2023-03-31T00:47:43.991Z,18.13
2023-03-31T00:50:21.429Z,22.40
2023-03-31T00:52:53.686Z,27.25
2023-03-31T00:55:24.878Z,22.50
2023-03-31T00:57:53.776Z,17.55
2023-03-31T01:00:22.060Z,18.98
2023-03-31T01:02:59.312Z,22.45
2023-03-31T01:05:57.193Z,15.32
2023-03-31T01:08:27.479Z,20.65
2023-03-31T01:11:03.811Z,22.33
2023-03-31T01:13:32.123Z,22.13
2023-03-31T01:15:59.229Z,19.08
2023-03-31T01:18:28.041Z,17.70
2023-03-31T01:21:18.823Z,22.95
2023-03-31T01:24:07.106Z,13.50
2023-03-31T01:27:09.926Z,17.20
2023-03-31T01:29:59.087Z,17.45
2023-03-31T01:33:07.609Z,19.02
2023-03-31T01:35:50.425Z,12.98
2023-03-31T01:38:32.701Z,15.68
2023-03-31T01:41:40.428Z,14.13
2023-03-31T01:44:10.212Z,9.88
2023-03-31T01:47:18.392Z,13.05
2023-03-31T01:49:51.057Z,15.48
2023-03-31T01:52:26.295Z,12.88
2023-03-31T01:55:06.549Z,13.25
2023-03-31T01:57:40.149Z,9.32
2023-03-31T02:00:15.429Z,12.77
2023-03-31T02:02:59.690Z,17.27
2023-03-31T02:05:32.531Z,13.93
2023-03-31T02:08:14.934Z,15.82
2023-03-31T02:10:44.144Z,18.20
2023-03-31T02:13:13.257Z,17.15
2023-03-31T02:15:44.296Z,18.75
2023-03-31T02:18:17.334Z,20.83
2023-03-31T02:20:47.993Z,20.88
2023-03-31T02:23:19.342Z,12.73
2023-03-31T02:25:54.896Z,14.10
2023-03-31T02:28:26.231Z,21.35
2023-03-31T02:31:27.577Z,22.10
2023-03-31T02:33:55.012Z,19.15
2023-03-31T02:36:22.307Z,22.70
2023-03-31T02:39:11.917Z,20.40
2023-03-31T02:41:38.788Z,18.23
2023-03-31T02:44:05.812Z,17.02
2023-03-31T02:46:33.358Z,18.15
2023-03-31T02:49:02.276Z,22.30
2023-03-31T02:52:00.912Z,20.15
2023-03-31T02:54:31.184Z,21.42
2023-03-31T02:57:21.228Z,16.80
2023-03-31T03:00:08.595Z,14.77
2023-03-31T03:02:56.971Z,15.35
2023-03-31T03:06:14.553Z,10.98
2023-03-31T03:08:55.742Z,18.95
2023-03-31T03:11:40.420Z,9.98
2023-03-31T03:14:44.982Z,17.00
2023-03-31T03:17:25.011Z,16.35
2023-03-31T03:19:55.731Z,10.93
2023-03-31T03:22:23.236Z,14.35
2023-03-31T03:24:50.058Z,12.20
2023-03-31T03:27:17.440Z,13.93
2023-03-31T03:29:44.340Z,17.38
2023-03-31T03:32:11.369Z,14.25
2023-03-31T03:34:38.465Z,14.85
2023-03-31T03:37:05.986Z,16.42
2023-03-31T03:39:32.901Z,16.58
2023-03-31T03:41:59.791Z,11.90
2023-03-31T03:44:26.618Z,14.82
2023-03-31T03:46:53.467Z,15.07
2023-03-31T03:49:20.689Z,16.63
2023-03-31T03:51:47.579Z,14.05
2023-03-31T03:54:15.346Z,13.40
2023-03-31T03:56:42.232Z,12.65
2023-03-31T03:59:09.182Z,19.48
2023-03-31T04:01:36.166Z,13.90
2023-03-31T04:04:03.555Z,16.17
2023-03-31T04:06:30.627Z,18.65
2023-03-31T04:08:57.464Z,17.02
2023-03-31T04:11:24.546Z,10.43
2023-03-31T04:13:51.303Z,17.95
2023-03-31T04:16:18.243Z,19.17
2023-03-31T04:18:45.204Z,9.13
2023-03-31T04:21:15.603Z,11.75
2023-03-31T04:23:46.935Z,11.35
2023-03-31T04:26:16.259Z,6.75
2023-03-31T04:28:46.773Z,7.05
2023-03-31T04:31:16.694Z,12.40
2023-03-31T04:33:46.068Z,12.98
2023-03-31T04:36:18.855Z,11.25
2023-03-31T04:38:47.797Z,12.52
2023-03-31T04:41:15.416Z,9.77
2023-03-31T04:43:42.633Z,10.60
2023-03-31T04:46:09.969Z,18.17
2023-03-31T04:48:37.370Z,12.48
2023-03-31T04:51:04.604Z,8.90
2023-03-31T04:53:31.793Z,10.68
2023-03-31T04:55:58.642Z,9.75
2023-03-31T04:58:25.602Z,13.00
2023-03-31T05:00:53.288Z,10.70
2023-03-31T05:03:20.659Z,8.73
2023-03-31T05:05:47.560Z,7.18
2023-03-31T05:08:14.390Z,8.73
2023-03-31T05:10:41.253Z,11.52
2023-03-31T05:13:10.441Z,3.80
2023-03-31T05:15:40.647Z,8.80
2023-03-31T05:18:08.069Z,9.18
2023-03-31T05:20:35.092Z,8.57
2023-03-31T05:23:02.026Z,10.40
2023-03-31T05:25:32.926Z,11.18
2023-03-31T05:28:01.506Z,6.03
2023-03-31T05:30:29.853Z,12.13
2023-03-31T05:32:57.083Z,15.68
2023-03-31T05:35:24.169Z,16.02
2023-03-31T05:37:51.188Z,12.57
2023-03-31T05:40:18.159Z,16.27
2023-03-31T05:42:45.059Z,13.57
2023-03-31T05:45:12.719Z,12.02
2023-03-31T05:47:39.728Z,12.18
2023-03-31T05:50:09.202Z,12.32
2023-03-31T05:52:36.630Z,8.45
2023-03-31T05:55:04.549Z,10.35
2023-03-31T05:57:31.908Z,9.23
2023-03-31T05:59:58.966Z,5.60
2023-03-31T06:02:26.081Z,15.93
2023-03-31T06:04:52.945Z,15.57
2023-03-31T06:07:19.845Z,15.82
2023-03-31T06:09:46.946Z,14.35
2023-03-31T06:12:14.033Z,17.90
2023-03-31T06:14:40.966Z,19.33
2023-03-31T06:17:07.787Z,16.95
2023-03-31T06:19:34.875Z,19.08
2023-03-31T06:22:01.871Z,17.42
2023-03-31T06:24:28.861Z,20.25
2023-03-31T06:26:55.845Z,25.67
2023-03-31T06:29:22.761Z,21.50
2023-03-31T06:31:49.696Z,24.13
2023-03-31T06:34:17.830Z,25.00
2023-03-31T06:36:45.744Z,22.55
2023-03-31T06:39:12.544Z,19.25
2023-03-31T06:41:39.427Z,21.85
2023-03-31T06:44:06.338Z,21.88
2023-03-31T06:46:33.232Z,21.42
2023-03-31T06:49:00.061Z,24.02
2023-03-31T06:51:26.968Z,31.70
2023-03-31T06:53:53.823Z,24.52
2023-03-31T06:56:20.942Z,28.55
2023-03-31T06:58:47.839Z,25.90
2023-03-31T07:01:14.788Z,31.17
2023-03-31T07:03:41.665Z,24.52
2023-03-31T07:06:08.633Z,28.55
2023-03-31T07:08:36.194Z,30.10
2023-03-31T07:11:03.351Z,21.45
2023-03-31T07:13:30.412Z,25.65
2023-03-31T07:15:58.153Z,23.15
2023-03-31T07:18:35.072Z,21.92
2023-03-31T07:21:05.743Z,21.23
2023-03-31T07:23:35.726Z,22.70
2023-03-31T07:26:02.751Z,26.48
2023-03-31T07:28:30.998Z,22.83
2023-03-31T07:30:57.945Z,30.15
2023-03-31T07:33:24.909Z,23.00
2023-03-31T07:36:00.295Z,18.92
2023-03-31T07:38:35.264Z,18.35
2023-03-31T07:41:08.889Z,20.50
2023-03-31T07:43:36.269Z,24.80
2023-03-31T07:46:03.360Z,20.92
2023-03-31T07:48:30.360Z,17.40
2023-03-31T07:50:57.301Z,24.92
2023-03-31T07:53:24.200Z,25.85
2023-03-31T07:55:51.075Z,20.88
2023-03-31T07:58:17.898Z,28.35
2023-03-31T08:00:44.723Z,21.63
2023-03-31T08:03:11.657Z,18.95
2023-03-31T08:05:38.604Z,22.35
2023-03-31T08:08:05.489Z,23.98
2023-03-31T08:10:32.396Z,21.33
2023-03-31T08:12:59.568Z,23.55
2023-03-31T08:15:26.633Z,22.58
2023-03-31T08:17:53.531Z,23.27
2023-03-31T08:20:20.518Z,26.67
2023-03-31T08:22:47.377Z,22.98
2023-03-31T08:25:14.274Z,22.67
2023-03-31T08:27:41.561Z,27.15
2023-03-31T08:30:10.650Z,24.08
2023-03-31T08:32:37.624Z,19.38
2023-03-31T08:35:05.128Z,23.83
2023-03-31T08:37:33.334Z,26.13
2023-03-31T08:40:00.753Z,27.77
2023-03-31T08:42:36.353Z,21.20
2023-03-31T08:45:20.384Z,31.15
2023-03-31T08:47:51.851Z,25.98
2023-03-31T08:50:24.971Z,22.92
2023-03-31T08:53:19.904Z,21.40
2023-03-31T08:55:52.612Z,20.70
2023-03-31T08:58:42.155Z,18.90
2023-03-31T09:01:52.773Z,17.38
2023-03-31T09:05:00.360Z,21.70
2023-03-31T09:07:43.463Z,22.17
2023-03-31T09:10:13.267Z,22.83
2023-03-31T09:12:58.562Z,14.70
2023-03-31T09:15:29.628Z,21.42
2023-03-31T09:18:03.714Z,20.63
2023-03-31T09:20:40.009Z,23.00
2023-03-31T09:23:16.401Z,21.05
2023-03-31T09:25:44.641Z,19.13
2023-03-31T09:28:21.993Z,16.95
2023-03-31T09:30:52.627Z,25.25
2023-03-31T09:33:32.050Z,30.92
2023-03-31T09:36:00.542Z,21.35
2023-03-31T09:38:31.323Z,19.77
2023-03-31T09:40:59.965Z,20.00
2023-03-31T09:43:29.669Z,21.65
2023-03-31T09:46:09.344Z,27.58
2023-03-31T09:48:38.335Z,23.45
2023-03-31T09:51:08.162Z,22.25
2023-03-31T09:53:54.251Z,23.40
2023-03-31T09:56:54.171Z,27.65
2023-03-31T09:59:32.383Z,25.05
2023-03-31T10:02:03.043Z,23.90
2023-03-31T10:04:35.053Z,32.00
2023-03-31T10:07:05.148Z,26.10
2023-03-31T10:09:34.398Z,28.15
2023-03-31T10:12:08.079Z,29.00
2023-03-31T10:14:46.620Z,26.17
2023-03-31T10:17:21.038Z,27.52
2023-03-31T10:19:59.448Z,22.35
2023-03-31T10:22:35.656Z,24.77
2023-03-31T10:25:16.077Z,18.13
2023-03-31T10:27:47.716Z,20.50
2023-03-31T10:30:21.844Z,27.40
2023-03-31T10:32:51.852Z,26.55
2023-03-31T10:35:27.869Z,22.58
2023-03-31T10:37:57.893Z,27.13
2023-03-31T10:40:27.956Z,26.08
2023-03-31T10:43:21.837Z,24.65
2023-03-31T10:45:52.300Z,24.25
2023-03-31T10:48:41.534Z,26.90
2023-03-31T10:51:25.982Z,23.35
2023-03-31T10:53:55.794Z,31.27
2023-03-31T10:56:52.850Z,26.75
2023-03-31T10:59:48.665Z,24.83
2023-03-31T11:02:21.444Z,31.00
2023-03-31T11:05:05.804Z,23.95
2023-03-31T11:07:59.794Z,22.02
2023-03-31T11:13:38.793Z,21.85
2023-03-31T11:16:28.757Z,21.65
2023-03-31T11:19:00.594Z,23.15
2023-03-31T11:21:39.699Z,17.25
2023-03-31T11:24:44.837Z,19.45
2023-03-31T11:27:29.882Z,21.92
2023-03-31T11:30:14.835Z,15.48
2023-03-31T11:32:51.838Z,15.20
2023-03-31T11:35:44.297Z,18.90
2023-03-31T11:38:39.862Z,19.65
2023-03-31T11:43:44.883Z,25.17
2023-03-31T11:46:23.643Z,20.00
2023-03-31T11:49:00.123Z,17.00
2023-03-31T11:51:39.207Z,20.52
2023-03-31T11:54:12.532Z,19.20
2023-03-31T11:56:41.512Z,18.33
2023-03-31T11:59:15.537Z,13.88
2023-03-31T12:01:57.892Z,18.88
2023-03-31T12:04:38.518Z,16.23
2023-03-31T12:07:11.902Z,12.50
2023-03-31T12:10:05.992Z,11.50
2023-03-31T12:12:39.198Z,18.83
2023-03-31T12:15:29.646Z,23.30
2023-03-31T12:18:01.942Z,16.20
2023-03-31T12:20:42.734Z,14.32
2023-03-31T12:23:19.567Z,14.80
2023-03-31T12:25:57.416Z,13.55
2023-03-31T12:28:25.368Z,21.30
2023-03-31T12:30:54.884Z,14.27
2023-03-31T12:33:31.441Z,16.90
2023-03-31T12:36:04.030Z,15.15
2023-03-31T12:39:10.072Z,10.73
2023-03-31T12:41:46.063Z,9.63
2023-03-31T12:44:41.929Z,11.90
2023-03-31T12:47:40.328Z,11.00
2023-03-31T12:50:30.438Z,9.52
2023-03-31T12:53:00.400Z,7.20
2023-03-31T12:55:53.334Z,7.00
2023-03-31T12:58:23.187Z,9.18
2023-03-31T13:01:19.559Z,9.68
2023-03-31T13:03:51.133Z,9.98
2023-03-31T13:06:29.854Z,10.50
2023-03-31T13:09:11.426Z,10.75
2023-03-31T13:11:40.045Z,8.10
2023-03-31T13:14:23.222Z,6.22
2023-03-31T13:16:55.546Z,9.77
2023-03-31T13:19:32.651Z,10.73
2023-03-31T13:22:01.910Z,13.40
2023-03-31T13:24:31.309Z,7.30
2023-03-31T13:27:36.475Z,9.63
2023-03-31T13:30:06.163Z,9.98
2023-03-31T13:32:33.177Z,7.35
2023-03-31T13:35:07.796Z,6.65
2023-03-31T13:37:58.921Z,5.78
2023-03-31T13:40:25.806Z,7.18
2023-03-31T13:43:16.410Z,7.43
2023-03-31T13:46:24.936Z,7.72
2023-03-31T13:48:54.560Z,6.82
2023-03-31T13:51:37.969Z,5.00
2023-03-31T13:54:16.960Z,3.65
2023-03-31T13:57:17.327Z,2.58
2023-03-31T14:00:21.299Z,5.60
2023-03-31T14:03:06.765Z,7.87
2023-03-31T14:05:40.611Z,5.75
2023-03-31T14:08:14.986Z,3.05
2023-03-31T14:10:43.476Z,5.95
2023-03-31T14:13:18.909Z,3.40
2023-03-31T14:15:53.844Z,7.32
2023-03-31T14:18:31.043Z,3.10
2023-03-31T14:21:08.686Z,2.53
2023-03-31T14:23:38.415Z,4.28
2023-03-31T14:26:36.046Z,2.60
2023-03-31T14:29:11.276Z,3.17
2023-03-31T14:31:49.794Z,4.00
2023-03-31T14:34:36.750Z,5.45
2023-03-31T14:37:11.454Z,6.68
2023-03-31T14:39:43.375Z,2.78
2023-03-31T14:42:19.037Z,2.72
2023-03-31T14:44:48.545Z,3.40
2023-03-31T14:47:20.714Z,4.97
2023-03-31T14:49:47.741Z,2.30
2023-03-31T14:52:21.245Z,2.72
2023-03-31T14:54:48.033Z,3.20
2023-03-31T14:57:25.740Z,6.35
2023-03-31T14:59:54.422Z,3.03
2023-03-31T15:02:32.839Z,1.58
2023-03-31T15:05:04.448Z,3.42
2023-03-31T15:07:32.900Z,4.68
2023-03-31T15:10:00.402Z,5.07
2023-03-31T15:12:29.438Z,2.13
2023-03-31T15:15:03.922Z,5.25
2023-03-31T15:17:36.551Z,1.90
2023-03-31T15:20:21.940Z,1.92
2023-03-31T15:22:48.758Z,3.17
2023-03-31T15:25:18.448Z,4.10
2023-03-31T15:27:54.690Z,4.47
2023-03-31T15:30:26.842Z,3.10
2023-03-31T15:32:59.049Z,4.85
2023-03-31T15:35:36.108Z,3.22
2023-03-31T15:38:10.009Z,2.78
2023-03-31T15:40:40.378Z,5.55
2023-03-31T15:45:52.488Z,2.70
2023-03-31T15:48:21.271Z,4.55
2023-03-31T15:50:48.995Z,7.93
2023-03-31T15:53:27.553Z,7.85
2023-03-31T15:55:57.035Z,8.55
2023-03-31T15:58:46.150Z,10.52
2023-03-31T16:01:15.812Z,8.52
2023-03-31T16:03:42.687Z,14.38
2023-03-31T16:06:36.205Z,12.00
2023-03-31T16:09:08.220Z,9.35
2023-03-31T16:11:45.429Z,14.95
2023-03-31T16:14:26.549Z,11.55
2023-03-31T16:16:58.403Z,10.43
2023-03-31T16:19:28.704Z,11.73
2023-03-31T16:21:59.671Z,11.38
2023-03-31T16:24:33.163Z,11.82
2023-03-31T16:27:06.567Z,10.38
2023-03-31T16:29:35.954Z,10.40
2023-03-31T16:32:13.116Z,14.52
2023-03-31T16:34:58.102Z,11.63
2023-03-31T16:37:25.880Z,20.67
2023-03-31T16:39:52.879Z,12.63
2023-03-31T16:42:20.783Z,13.68
2023-03-31T16:44:52.882Z,13.30
2023-03-31T16:47:35.215Z,11.20
2023-03-31T16:50:07.211Z,11.02
2023-03-31T16:52:34.802Z,7.90
2023-03-31T16:55:01.955Z,12.18
2023-03-31T16:57:28.887Z,8.95
2023-03-31T16:59:57.592Z,13.40
2023-03-31T17:02:26.378Z,10.70
2023-03-31T17:04:56.639Z,7.65
2023-03-31T17:07:27.027Z,11.25
2023-03-31T17:09:53.825Z,8.25
2023-03-31T17:12:20.913Z,10.77
2023-03-31T17:14:47.734Z,12.68
2023-03-31T17:17:17.357Z,15.98
2023-03-31T17:19:45.100Z,13.63
2023-03-31T17:22:12.027Z,8.45
2023-03-31T17:24:38.921Z,13.00
2023-03-31T17:27:05.950Z,15.68
2023-03-31T17:29:32.748Z,18.80
2023-03-31T17:31:59.587Z,15.30
2023-03-31T17:34:26.452Z,14.57
2023-03-31T17:36:55.523Z,13.48
2023-03-31T17:39:22.565Z,19.10
2023-03-31T17:41:49.462Z,12.15
2023-03-31T17:44:16.572Z,14.70
2023-03-31T17:46:43.456Z,12.45
2023-03-31T17:49:11.209Z,16.23
2023-03-31T17:51:38.080Z,17.27
2023-03-31T17:54:05.034Z,20.98
2023-03-31T17:56:31.948Z,22.25
2023-03-31T17:58:58.784Z,17.73
2023-03-31T18:01:25.808Z,23.15
2023-03-31T18:03:55.686Z,20.10
2023-03-31T18:06:22.463Z,18.67
2023-03-31T18:08:49.261Z,22.00
2023-03-31T18:11:16.217Z,15.25
2023-03-31T18:13:43.142Z,23.33
2023-03-31T18:16:11.017Z,19.90
2023-03-31T18:18:39.473Z,24.38
2023-03-31T18:21:07.922Z,23.05
2023-03-31T18:23:35.884Z,14.75
2023-03-31T18:26:05.710Z,18.92
2023-03-31T18:28:32.960Z,22.63
2023-03-31T18:31:07.826Z,17.90
2023-03-31T18:33:35.068Z,17.95
2023-03-31T18:36:02.573Z,29.95
2023-03-31T18:38:30.229Z,18.40
2023-03-31T18:40:58.039Z,24.10
2023-03-31T18:43:26.269Z,27.17
2023-03-31T18:45:55.110Z,24.85
2023-03-31T18:48:23.261Z,26.27
2023-03-31T18:50:51.985Z,25.27
2023-03-31T18:53:20.799Z,17.58
2023-03-31T18:55:52.109Z,23.02
2023-03-31T18:58:19.233Z,22.10
2023-03-31T19:00:46.578Z,22.23
2023-03-31T19:03:13.845Z,23.58
2023-03-31T19:05:41.027Z,24.20
2023-03-31T19:08:08.327Z,25.30
2023-03-31T19:10:35.158Z,28.02
2023-03-31T19:13:02.574Z,26.15
2023-03-31T19:15:29.728Z,19.77
2023-03-31T19:17:57.118Z,24.33
2023-03-31T19:20:24.076Z,27.25
2023-03-31T19:22:51.920Z,22.33
2023-03-31T19:25:20.776Z,17.58
2023-03-31T19:27:48.087Z,23.70
2023-03-31T19:30:23.982Z,19.23
2023-03-31T19:32:51.128Z,22.50
2023-03-31T19:35:21.153Z,19.52
2023-03-31T19:37:48.897Z,18.85
2023-03-31T19:40:15.862Z,20.00
2023-03-31T19:42:44.267Z,18.20
2023-03-31T19:45:11.598Z,22.50
2023-03-31T19:47:38.551Z,21.05
2023-03-31T19:50:07.371Z,20.83
2023-03-31T19:52:34.702Z,20.17
2023-03-31T19:55:01.554Z,20.88
2023-03-31T19:57:29.186Z,23.65
2023-03-31T19:59:56.519Z,25.52
2023-03-31T20:02:23.750Z,20.75
2023-03-31T20:04:51.661Z,24.45
2023-03-31T20:07:18.773Z,26.77
2023-03-31T20:09:46.088Z,22.65
2023-03-31T20:12:12.930Z,18.25
2023-03-31T20:14:39.879Z,22.52
2023-03-31T20:17:07.560Z,26.30
2023-03-31T20:19:35.149Z,22.55
2023-03-31T20:22:02.134Z,17.13
2023-03-31T20:24:29.457Z,23.42
2023-03-31T20:26:56.464Z,22.48
2023-03-31T20:29:24.791Z,22.75
2023-03-31T20:31:51.887Z,20.80
2023-03-31T20:34:19.388Z,20.55
2023-03-31T20:36:49.423Z,20.85
2023-03-31T20:39:16.591Z,22.80
2023-03-31T20:41:44.135Z,21.95
2023-03-31T20:44:15.190Z,15.05
2023-03-31T20:46:43.809Z,23.13
2023-03-31T20:49:11.552Z,21.05
2023-03-31T20:51:38.832Z,14.90
2023-03-31T20:54:07.722Z,17.27
2023-03-31T20:56:40.588Z,18.33
2023-03-31T20:59:10.614Z,20.10
2023-03-31T21:01:37.619Z,18.90
2023-03-31T21:04:06.714Z,21.55
2023-03-31T21:06:39.563Z,20.80
2023-03-31T21:09:06.749Z,18.35
2023-03-31T21:11:34.233Z,21.15
2023-03-31T21:14:01.545Z,19.40
2023-03-31T21:16:28.487Z,20.58
2023-03-31T21:18:55.583Z,21.95
2023-03-31T21:21:24.498Z,18.85
2023-03-31T21:23:52.137Z,17.20
2023-03-31T21:26:19.742Z,22.17
2023-03-31T21:28:48.201Z,19.67
2023-03-31T21:31:17.968Z,23.85
2023-03-31T21:33:46.255Z,17.63
2023-03-31T21:36:16.508Z,21.88
2023-03-31T21:38:44.838Z,22.58
2023-03-31T21:41:14.395Z,24.25
2023-03-31T21:43:41.808Z,23.98
2023-03-31T21:46:09.030Z,20.70
2023-03-31T21:48:36.001Z,24.17
2023-03-31T21:51:03.633Z,19.30
2023-03-31T21:53:31.359Z,27.65
2023-03-31T21:55:58.422Z,25.45
2023-03-31T21:58:28.666Z,28.88
2023-03-31T22:00:57.568Z,31.30
2023-03-31T22:03:29.148Z,28.38
2023-03-31T22:05:57.513Z,24.15
2023-03-31T22:08:27.041Z,24.58
2023-03-31T22:10:55.333Z,26.00
2023-03-31T22:13:23.043Z,25.17
2023-03-31T22:15:50.446Z,22.13
2023-03-31T22:18:17.980Z,25.13
2023-03-31T22:20:46.034Z,25.98
2023-03-31T22:23:13.326Z,22.45
2023-03-31T22:25:40.118Z,21.52
2023-03-31T22:28:07.721Z,24.85
2023-03-31T22:30:35.134Z,22.63
2023-03-31T22:33:02.165Z,29.58
2023-03-31T22:35:29.236Z,17.00
2023-03-31T22:37:56.219Z,21.98
2023-03-31T22:40:23.804Z,20.27
2023-03-31T22:42:50.642Z,26.02
2023-03-31T22:45:17.589Z,22.08
2023-03-31T22:47:44.480Z,21.25
2023-03-31T22:50:11.951Z,19.95
2023-03-31T22:52:38.740Z,19.77
2023-03-31T22:55:06.386Z,18.13
2023-03-31T22:57:33.581Z,14.32
2023-03-31T23:00:00.761Z,19.17
2023-03-31T23:02:27.732Z,19.75
2023-03-31T23:04:54.616Z,11.15
2023-03-31T23:07:22.328Z,14.10
2023-03-31T23:09:49.198Z,18.52
2023-03-31T23:12:16.303Z,21.35
2023-03-31T23:14:43.142Z,8.68
2023-03-31T23:17:10.084Z,14.18
2023-03-31T23:19:38.867Z,15.27
2023-03-31T23:22:06.154Z,15.98
2023-03-31T23:24:33.144Z,18.08
2023-03-31T23:27:00.035Z,10.48
2023-03-31T23:29:27.405Z,18.65
2023-03-31T23:31:54.428Z,15.20
2023-03-31T23:34:21.433Z,12.95
2023-03-31T23:36:48.340Z,14.45
2023-03-31T23:39:15.312Z,13.32
2023-03-31T23:41:42.226Z,12.30
2023-03-31T23:44:09.080Z,10.57
2023-03-31T23:46:37.811Z,9.60
2023-03-31T23:49:05.102Z,12.38
2023-03-31T23:51:31.931Z,17.10
2023-03-31T23:53:58.955Z,15.38
2023-03-31T23:56:27.168Z,10.38
2023-03-31T23:58:54.199Z,12.73
